sensor_id;sensor_type;location;lat;lon;timestamp;pressure;altitude;pressure_sealevel;temperature;humidity
29839;BME280;18669;53.356;-1.464;2022-07-06T00:01:28;101679.22;;;17.85;100.00
29839;BME280;18669;53.356;-1.464;2022-07-06T00:03:55;101675.59;;;17.88;100.00
29839;BME280;18669;53.356;-1.464;2022-07-06T00:06:24;101680.00;;;17.89;100.00
29839;BME280;18669;53.356;-1.464;2022-07-06T00:08:51;101669.47;;;17.86;97.46
29839;BME280;18669;53.356;-1.464;2022-07-06T00:11:20;101647.97;;;17.92;100.00
29839;BME280;18669;53.356;-1.464;2022-07-06T00:13:47;101663.97;;;17.90;100.00
29839;BME280;18669;53.356;-1.464;2022-07-06T00:16:30;101674.88;;;18.10;99.25
29839;BME280;18669;53.356;-1.464;2022-07-06T00:23:26;101662.69;;;18.02;100.00
29839;BME280;18669;53.356;-1.464;2022-07-06T00:26:01;101662.59;;;17.79;100.00
29839;BME280;18669;53.356;-1.464;2022-07-06T00:28:34;101655.53;;;17.78;100.00
29839;BME280;18669;53.356;-1.464;2022-07-06T00:31:01;101664.44;;;17.77;100.00
29839;BME280;18669;53.356;-1.464;2022-07-06T00:33:34;101665.00;;;17.86;100.00
29839;BME280;18669;53.356;-1.464;2022-07-06T00:36:06;101659.34;;;17.70;100.00
29839;BME280;18669;53.356;-1.464;2022-07-06T00:38:34;101660.16;;;17.72;100.00
29839;BME280;18669;53.356;-1.464;2022-07-06T00:41:03;101649.94;;;17.85;100.00
29839;BME280;18669;53.356;-1.464;2022-07-06T00:43:46;101652.56;;;17.87;100.00
29839;BME280;18669;53.356;-1.464;2022-07-06T00:49:19;101645.47;;;17.60;100.00
29839;BME280;18669;53.356;-1.464;2022-07-06T00:55:58;101638.41;;;17.59;100.00
29839;BME280;18669;53.356;-1.464;2022-07-06T01:01:49;101643.69;;;17.61;100.00
29839;BME280;18669;53.356;-1.464;2022-07-06T01:04:23;101636.25;;;17.71;100.00
29839;BME280;18669;53.356;-1.464;2022-07-06T01:06:50;101641.78;;;17.65;100.00
29839;BME280;18669;53.356;-1.464;2022-07-06T01:09:19;101634.94;;;17.57;100.00
29839;BME280;18669;53.356;-1.464;2022-07-06T01:11:50;101641.97;;;17.60;100.00
29839;BME280;18669;53.356;-1.464;2022-07-06T01:14:24;101640.25;;;17.57;100.00
29839;BME280;18669;53.356;-1.464;2022-07-06T01:16:54;101642.97;;;17.56;100.00
29839;BME280;18669;53.356;-1.464;2022-07-06T01:19:25;101652.53;;;17.62;100.00
29839;BME280;18669;53.356;-1.464;2022-07-06T01:25:57;101649.91;;;17.87;100.00
29839;BME280;18669;53.356;-1.464;2022-07-06T01:28:42;101653.38;;;17.89;100.00
29839;BME280;18669;53.356;-1.464;2022-07-06T01:42:52;101612.69;;;17.60;100.00
29839;BME280;18669;53.356;-1.464;2022-07-06T01:45:58;101619.59;;;17.91;100.00
29839;BME280;18669;53.356;-1.464;2022-07-06T01:49:42;101620.44;;;17.92;100.00
29839;BME280;18669;53.356;-1.464;2022-07-06T01:52:32;101616.06;;;17.90;100.00
29839;BME280;18669;53.356;-1.464;2022-07-06T01:54:58;101616.91;;;17.66;100.00
29839;BME280;18669;53.356;-1.464;2022-07-06T01:57:28;101601.97;;;17.62;100.00
29839;BME280;18669;53.356;-1.464;2022-07-06T01:59:55;101580.19;;;17.50;100.00
29839;BME280;18669;53.356;-1.464;2022-07-06T02:02:30;101604.25;;;17.72;100.00
29839;BME280;18669;53.356;-1.464;2022-07-06T02:05:06;101612.94;;;17.52;100.00
29839;BME280;18669;53.356;-1.464;2022-07-06T02:08:04;101607.75;;;17.74;100.00
29839;BME280;18669;53.356;-1.464;2022-07-06T02:15:23;101579.38;;;17.73;100.00
29839;BME280;18669;53.356;-1.464;2022-07-06T02:18:17;101570.59;;;17.71;100.00
29839;BME280;18669;53.356;-1.464;2022-07-06T02:20:46;101559.78;;;17.51;100.00
29839;BME280;18669;53.356;-1.464;2022-07-06T02:23:13;101540.28;;;17.50;100.00
29839;BME280;18669;53.356;-1.464;2022-07-06T02:25:39;101551.53;;;17.58;100.00
29839;BME280;18669;53.356;-1.464;2022-07-06T02:28:05;101555.06;;;17.59;100.00
29839;BME280;18669;53.356;-1.464;2022-07-06T02:30:44;101566.84;;;17.77;100.00
29839;BME280;18669;53.356;-1.464;2022-07-06T02:33:54;101551.81;;;17.51;100.00
29839;BME280;18669;53.356;-1.464;2022-07-06T02:36:20;101550.56;;;17.61;100.00
29839;BME280;18669;53.356;-1.464;2022-07-06T02:38:46;101541.59;;;17.64;100.00
29839;BME280;18669;53.356;-1.464;2022-07-06T02:41:15;101543.41;;;17.63;100.00
29839;BME280;18669;53.356;-1.464;2022-07-06T02:43:45;101543.03;;;17.72;100.00
29839;BME280;18669;53.356;-1.464;2022-07-06T02:46:12;101553.25;;;17.59;100.00
29839;BME280;18669;53.356;-1.464;2022-07-06T02:48:39;101540.25;;;17.52;100.00
29839;BME280;18669;53.356;-1.464;2022-07-06T02:51:09;101552.56;;;17.80;100.00
29839;BME280;18669;53.356;-1.464;2022-07-06T02:53:36;101552.31;;;17.62;100.00
29839;BME280;18669;53.356;-1.464;2022-07-06T02:56:02;101554.88;;;17.65;100.00
29839;BME280;18669;53.356;-1.464;2022-07-06T02:58:32;101547.75;;;17.89;100.00
29839;BME280;18669;53.356;-1.464;2022-07-06T03:00:59;101551.53;;;17.84;100.00
29839;BME280;18669;53.356;-1.464;2022-07-06T03:03:25;101550.59;;;17.85;100.00
29839;BME280;18669;53.356;-1.464;2022-07-06T03:05:54;101554.00;;;17.88;100.00
29839;BME280;18669;53.356;-1.464;2022-07-06T03:08:24;101551.44;;;18.11;100.00
29839;BME280;18669;53.356;-1.464;2022-07-06T03:10:50;101565.34;;;17.94;100.00
29839;BME280;18669;53.356;-1.464;2022-07-06T03:13:19;101560.78;;;17.99;100.00
29839;BME280;18669;53.356;-1.464;2022-07-06T03:15:46;101553.16;;;17.88;100.00
29839;BME280;18669;53.356;-1.464;2022-07-06T03:18:12;101572.13;;;18.04;100.00
29839;BME280;18669;53.356;-1.464;2022-07-06T03:20:39;101571.19;;;18.05;100.00
29839;BME280;18669;53.356;-1.464;2022-07-06T03:23:06;101570.38;;;18.03;100.00
29839;BME280;18669;53.356;-1.464;2022-07-06T03:25:32;101567.84;;;18.00;100.00
29839;BME280;18669;53.356;-1.464;2022-07-06T03:27:59;101573.16;;;18.00;100.00
29839;BME280;18669;53.356;-1.464;2022-07-06T03:30:25;101570.38;;;18.03;100.00
29839;BME280;18669;53.356;-1.464;2022-07-06T03:32:52;101560.53;;;18.05;100.00
29839;BME280;18669;53.356;-1.464;2022-07-06T03:35:22;101566.97;;;17.99;100.00
29839;BME280;18669;53.356;-1.464;2022-07-06T03:37:49;101557.25;;;17.97;100.00
29839;BME280;18669;53.356;-1.464;2022-07-06T03:40:15;101566.84;;;18.02;100.00
29839;BME280;18669;53.356;-1.464;2022-07-06T03:42:41;101569.66;;;17.98;100.00
29839;BME280;18669;53.356;-1.464;2022-07-06T03:45:09;101565.00;;;18.04;100.00
29839;BME280;18669;53.356;-1.464;2022-07-06T03:47:35;101566.25;;;17.94;100.00
29839;BME280;18669;53.356;-1.464;2022-07-06T03:50:02;101565.25;;;17.97;100.00
29839;BME280;18669;53.356;-1.464;2022-07-06T03:52:29;101560.22;;;17.89;100.00
29839;BME280;18669;53.356;-1.464;2022-07-06T03:54:56;101560.91;;;17.94;100.00
29839;BME280;18669;53.356;-1.464;2022-07-06T03:57:32;101567.59;;;18.06;100.00
29839;BME280;18669;53.356;-1.464;2022-07-06T03:59:58;101568.94;;;17.93;100.00
29839;BME280;18669;53.356;-1.464;2022-07-06T04:02:25;101572.53;;;17.92;100.00
29839;BME280;18669;53.356;-1.464;2022-07-06T04:04:55;101544.56;;;17.80;100.00
29839;BME280;18669;53.356;-1.464;2022-07-06T04:07:25;101546.13;;;17.85;100.00
29839;BME280;18669;53.356;-1.464;2022-07-06T04:09:55;101549.84;;;17.81;100.00
29839;BME280;18669;53.356;-1.464;2022-07-06T04:12:24;101569.72;;;17.96;100.00
29839;BME280;18669;53.356;-1.464;2022-07-06T04:14:51;101567.09;;;17.95;100.00
29839;BME280;18669;53.356;-1.464;2022-07-06T04:17:40;101564.66;;;18.14;100.00
29839;BME280;18669;53.356;-1.464;2022-07-06T04:20:23;101567.84;;;18.00;100.00
29839;BME280;18669;53.356;-1.464;2022-07-06T04:23:02;101569.28;;;18.09;100.00
29839;BME280;18669;53.356;-1.464;2022-07-06T04:25:33;101559.00;;;17.99;100.00
29839;BME280;18669;53.356;-1.464;2022-07-06T04:28:00;101561.13;;;17.88;100.00
29839;BME280;18669;53.356;-1.464;2022-07-06T04:30:27;101565.44;;;17.92;100.00
29839;BME280;18669;53.356;-1.464;2022-07-06T04:32:57;101567.19;;;17.92;100.00
29839;BME280;18669;53.356;-1.464;2022-07-06T04:35:24;101546.19;;;17.84;100.00
29839;BME280;18669;53.356;-1.464;2022-07-06T04:37:50;101562.66;;;17.95;100.00
29839;BME280;18669;53.356;-1.464;2022-07-06T04:40:17;101567.91;;;17.97;100.00
29839;BME280;18669;53.356;-1.464;2022-07-06T04:42:53;101545.38;;;18.07;100.00
29839;BME280;18669;53.356;-1.464;2022-07-06T04:45:23;101554.22;;;18.08;100.00
29839;BME280;18669;53.356;-1.464;2022-07-06T04:47:49;101558.16;;;17.97;100.00
29839;BME280;18669;53.356;-1.464;2022-07-06T04:50:15;101557.34;;;17.95;100.00
29839;BME280;18669;53.356;-1.464;2022-07-06T04:52:45;101562.19;;;18.09;100.00
29839;BME280;18669;53.356;-1.464;2022-07-06T04:55:14;101551.53;;;18.09;100.00
29839;BME280;18669;53.356;-1.464;2022-07-06T04:57:41;101566.34;;;17.91;100.00
29839;BME280;18669;53.356;-1.464;2022-07-06T05:00:08;101560.16;;;17.90;100.00
29839;BME280;18669;53.356;-1.464;2022-07-06T05:02:34;101568.91;;;17.94;100.00
29839;BME280;18669;53.356;-1.464;2022-07-06T05:05:01;101563.50;;;17.96;100.00
29839;BME280;18669;53.356;-1.464;2022-07-06T05:07:28;101555.41;;;18.00;100.00
29839;BME280;18669;53.356;-1.464;2022-07-06T05:10:00;101558.38;;;18.16;100.00
29839;BME280;18669;53.356;-1.464;2022-07-06T05:12:26;101556.97;;;18.06;100.00
29839;BME280;18669;53.356;-1.464;2022-07-06T05:14:52;101553.47;;;18.04;100.00
29839;BME280;18669;53.356;-1.464;2022-07-06T05:17:22;101557.88;;;18.29;100.00
29839;BME280;18669;53.356;-1.464;2022-07-06T05:19:54;101559.50;;;18.33;100.00
29839;BME280;18669;53.356;-1.464;2022-07-06T05:22:24;101563.53;;;18.19;100.00
29839;BME280;18669;53.356;-1.464;2022-07-06T05:24:51;101562.38;;;18.27;100.00
29839;BME280;18669;53.356;-1.464;2022-07-06T05:28:08;101576.84;;;18.19;100.00
29839;BME280;18669;53.356;-1.464;2022-07-06T05:30:32;101547.94;;;18.10;100.00
29839;BME280;18669;53.356;-1.464;2022-07-06T05:32:58;101566.16;;;18.21;100.00
29839;BME280;18669;53.356;-1.464;2022-07-06T05:35:25;101566.22;;;18.19;100.00
29839;BME280;18669;53.356;-1.464;2022-07-06T05:37:57;101567.72;;;18.27;100.00
29839;BME280;18669;53.356;-1.464;2022-07-06T05:40:49;101575.19;;;18.41;100.00
29839;BME280;18669;53.356;-1.464;2022-07-06T05:55:31;101569.06;;;18.15;100.00
29839;BME280;18669;53.356;-1.464;2022-07-06T05:57:58;101570.88;;;18.14;100.00
29839;BME280;18669;53.356;-1.464;2022-07-06T06:00:26;101555.22;;;18.29;100.00
29839;BME280;18669;53.356;-1.464;2022-07-06T06:02:53;101550.69;;;18.31;100.00
29839;BME280;18669;53.356;-1.464;2022-07-06T06:05:27;101513.94;;;18.17;100.00
29839;BME280;18669;53.356;-1.464;2022-07-06T06:07:57;101538.22;;;18.55;100.00
29839;BME280;18669;53.356;-1.464;2022-07-06T06:10:28;101533.13;;;18.49;100.00
29839;BME280;18669;53.356;-1.464;2022-07-06T06:12:55;101512.75;;;18.48;100.00
29839;BME280;18669;53.356;-1.464;2022-07-06T06:15:24;101523.84;;;18.59;100.00
29839;BME280;18669;53.356;-1.464;2022-07-06T06:17:51;101553.84;;;18.87;100.00
29839;BME280;18669;53.356;-1.464;2022-07-06T06:20:26;101561.72;;;19.12;100.00
29839;BME280;18669;53.356;-1.464;2022-07-06T06:22:55;101575.06;;;19.12;100.00
29839;BME280;18669;53.356;-1.464;2022-07-06T06:25:35;101578.06;;;19.25;100.00
29839;BME280;18669;53.356;-1.464;2022-07-06T06:28:03;101576.19;;;19.06;100.00
29839;BME280;18669;53.356;-1.464;2022-07-06T06:30:38;101579.59;;;19.10;100.00
29839;BME280;18669;53.356;-1.464;2022-07-06T06:33:12;101567.72;;;18.97;100.00
29839;BME280;18669;53.356;-1.464;2022-07-06T06:35:43;101573.25;;;18.90;100.00
29839;BME280;18669;53.356;-1.464;2022-07-06T06:38:10;101576.03;;;18.87;100.00
29839;BME280;18669;53.356;-1.464;2022-07-06T06:40:41;101569.53;;;18.94;100.00
29839;BME280;18669;53.356;-1.464;2022-07-06T06:43:14;101562.50;;;18.92;100.00
29839;BME280;18669;53.356;-1.464;2022-07-06T06:45:48;101574.09;;;18.91;100.00
29839;BME280;18669;53.356;-1.464;2022-07-06T06:48:40;101581.25;;;18.90;100.00
29839;BME280;18669;53.356;-1.464;2022-07-06T07:10:19;101572.81;;;18.79;100.00
29839;BME280;18669;53.356;-1.464;2022-07-06T07:13:17;101579.59;;;18.88;100.00
29839;BME280;18669;53.356;-1.464;2022-07-06T07:19:26;101569.72;;;19.12;100.00
29839;BME280;18669;53.356;-1.464;2022-07-06T07:22:41;101572.81;;;19.23;100.00
29839;BME280;18669;53.356;-1.464;2022-07-06T07:25:44;101566.06;;;19.15;100.00
29839;BME280;18669;53.356;-1.464;2022-07-06T07:28:20;101565.88;;;19.19;100.00
29839;BME280;18669;53.356;-1.464;2022-07-06T07:30:54;101564.69;;;19.27;100.00
29839;BME280;18669;53.356;-1.464;2022-07-06T07:33:24;101573.75;;;19.22;100.00
29839;BME280;18669;53.356;-1.464;2022-07-06T07:36:15;101572.69;;;19.47;100.00
29839;BME280;18669;53.356;-1.464;2022-07-06T07:39:16;101569.38;;;19.42;100.00
29839;BME280;18669;53.356;-1.464;2022-07-06T07:41:46;101571.44;;;19.35;100.00
29839;BME280;18669;53.356;-1.464;2022-07-06T07:44:18;101571.63;;;19.31;100.00
29839;BME280;18669;53.356;-1.464;2022-07-06T07:46:52;101567.16;;;19.31;100.00
29839;BME280;18669;53.356;-1.464;2022-07-06T07:49:24;101573.28;;;19.33;100.00
29839;BME280;18669;53.356;-1.464;2022-07-06T07:51:59;101576.16;;;19.49;100.00
29839;BME280;18669;53.356;-1.464;2022-07-06T07:54:29;101578.25;;;19.43;100.00
29839;BME280;18669;53.356;-1.464;2022-07-06T07:57:01;101587.84;;;19.47;100.00
29839;BME280;18669;53.356;-1.464;2022-07-06T07:59:30;101579.63;;;19.51;100.00
29839;BME280;18669;53.356;-1.464;2022-07-06T08:01:59;101580.72;;;19.68;100.00
29839;BME280;18669;53.356;-1.464;2022-07-06T08:04:28;101567.59;;;19.82;100.00
29839;BME280;18669;53.356;-1.464;2022-07-06T08:14:58;101569.53;;;20.59;100.00
29839;BME280;18669;53.356;-1.464;2022-07-06T08:18:32;101583.69;;;20.61;100.00
29839;BME280;18669;53.356;-1.464;2022-07-06T08:21:25;101584.25;;;20.48;100.00
29839;BME280;18669;53.356;-1.464;2022-07-06T08:24:12;101575.94;;;20.74;100.00
29839;BME280;18669;53.356;-1.464;2022-07-06T08:26:42;101583.88;;;20.56;100.00
29839;BME280;18669;53.356;-1.464;2022-07-06T08:29:11;101579.19;;;20.42;100.00
29839;BME280;18669;53.356;-1.464;2022-07-06T08:31:41;101576.91;;;20.34;100.00
29839;BME280;18669;53.356;-1.464;2022-07-06T08:34:10;101572.34;;;20.36;100.00
29839;BME280;18669;53.356;-1.464;2022-07-06T08:36:42;101582.53;;;20.28;100.00
29839;BME280;18669;53.356;-1.464;2022-07-06T08:39:12;101584.47;;;20.05;100.00
29839;BME280;18669;53.356;-1.464;2022-07-06T08:41:44;101580.56;;;20.12;100.00
29839;BME280;18669;53.356;-1.464;2022-07-06T08:44:17;101579.16;;;20.04;100.00
29839;BME280;18669;53.356;-1.464;2022-07-06T08:46:47;101590.47;;;20.10;100.00
29839;BME280;18669;53.356;-1.464;2022-07-06T08:49:18;101585.91;;;20.32;100.00
29839;BME280;18669;53.356;-1.464;2022-07-06T08:51:48;101578.78;;;20.51;100.00
29839;BME280;18669;53.356;-1.464;2022-07-06T08:54:17;101581.88;;;20.80;100.00
29839;BME280;18669;53.356;-1.464;2022-07-06T08:56:48;101563.31;;;21.14;100.00
29839;BME280;18669;53.356;-1.464;2022-07-06T08:59:20;101567.88;;;21.47;100.00
29839;BME280;18669;53.356;-1.464;2022-07-06T09:01:49;101566.22;;;21.44;100.00
29839;BME280;18669;53.356;-1.464;2022-07-06T09:04:18;101580.00;;;21.54;100.00
29839;BME280;18669;53.356;-1.464;2022-07-06T09:06:49;101572.75;;;21.74;100.00
29839;BME280;18669;53.356;-1.464;2022-07-06T09:09:19;101576.91;;;21.97;100.00
29839;BME280;18669;53.356;-1.464;2022-07-06T09:11:47;101578.84;;;21.94;100.00
29839;BME280;18669;53.356;-1.464;2022-07-06T09:14:16;101582.28;;;21.80;100.00
29839;BME280;18669;53.356;-1.464;2022-07-06T09:17:11;101577.69;;;21.99;100.00
29839;BME280;18669;53.356;-1.464;2022-07-06T09:23:34;101582.56;;;21.91;100.00
29839;BME280;18669;53.356;-1.464;2022-07-06T09:30:28;101589.38;;;21.28;100.00
29839;BME280;18669;53.356;-1.464;2022-07-06T09:32:59;101599.03;;;21.13;100.00
29839;BME280;18669;53.356;-1.464;2022-07-06T09:35:36;101592.16;;;21.07;100.00
29839;BME280;18669;53.356;-1.464;2022-07-06T09:38:29;101589.53;;;20.88;100.00
29839;BME280;18669;53.356;-1.464;2022-07-06T09:40:55;101581.44;;;20.90;100.00
29839;BME280;18669;53.356;-1.464;2022-07-06T09:43:51;101588.47;;;21.10;100.00
29839;BME280;18669;53.356;-1.464;2022-07-06T09:46:41;101580.13;;;20.98;100.00
29839;BME280;18669;53.356;-1.464;2022-07-06T09:49:08;101581.06;;;20.97;100.00
29839;BME280;18669;53.356;-1.464;2022-07-06T09:51:38;101574.31;;;21.60;100.00
29839;BME280;18669;53.356;-1.464;2022-07-06T09:54:08;101561.56;;;22.33;100.00
29839;BME280;18669;53.356;-1.464;2022-07-06T09:56:41;101570.78;;;22.77;93.87
29839;BME280;18669;53.356;-1.464;2022-07-06T09:59:13;101557.56;;;22.58;89.09
29839;BME280;18669;53.356;-1.464;2022-07-06T10:01:40;101563.53;;;22.13;90.91
29839;BME280;18669;53.356;-1.464;2022-07-06T10:04:09;101562.66;;;22.13;95.82
29839;BME280;18669;53.356;-1.464;2022-07-06T10:06:39;101562.41;;;22.17;94.84
29839;BME280;18669;53.356;-1.464;2022-07-06T10:09:08;101565.91;;;22.02;92.86
29839;BME280;18669;53.356;-1.464;2022-07-06T10:11:39;101571.06;;;22.07;96.43
29839;BME280;18669;53.356;-1.464;2022-07-06T10:14:07;101562.28;;;22.03;94.25
29839;BME280;18669;53.356;-1.464;2022-07-06T10:16:38;101569.94;;;22.27;92.20
29839;BME280;18669;53.356;-1.464;2022-07-06T10:19:06;101575.81;;;22.17;92.03
29839;BME280;18669;53.356;-1.464;2022-07-06T10:25:02;101572.81;;;22.40;89.60
29839;BME280;18669;53.356;-1.464;2022-07-06T10:27:28;101571.25;;;22.19;89.34
29839;BME280;18669;53.356;-1.464;2022-07-06T10:30:09;101570.38;;;22.35;87.39
29839;BME280;18669;53.356;-1.464;2022-07-06T10:32:36;101577.41;;;22.04;89.33
29839;BME280;18669;53.356;-1.464;2022-07-06T10:35:05;101601.84;;;22.15;87.95
29839;BME280;18669;53.356;-1.464;2022-07-06T10:37:32;101605.69;;;22.10;87.33
29839;BME280;18669;53.356;-1.464;2022-07-06T10:40:00;101608.22;;;22.13;88.73
29839;BME280;18669;53.356;-1.464;2022-07-06T10:42:50;101594.47;;;22.19;93.00
29839;BME280;18669;53.356;-1.464;2022-07-06T10:50:39;101603.63;;;21.64;89.33
29839;BME280;18669;53.356;-1.464;2022-07-06T10:53:26;101581.97;;;22.19;85.46
29839;BME280;18669;53.356;-1.464;2022-07-06T10:55:56;101553.53;;;22.65;83.41
29839;BME280;18669;53.356;-1.464;2022-07-06T11:01:02;101583.38;;;23.07;74.35
29839;BME280;18669;53.356;-1.464;2022-07-06T11:06:08;101581.28;;;22.96;76.24
29839;BME280;18669;53.356;-1.464;2022-07-06T11:09:16;101596.13;;;22.71;70.36
29839;BME280;18669;53.356;-1.464;2022-07-06T11:19:50;101601.97;;;21.96;74.16
29839;BME280;18669;53.356;-1.464;2022-07-06T11:22:17;101605.38;;;21.65;77.47
29839;BME280;18669;53.356;-1.464;2022-07-06T11:24:47;101579.75;;;21.59;80.26
29839;BME280;18669;53.356;-1.464;2022-07-06T11:27:13;101588.19;;;21.86;78.68
29839;BME280;18669;53.356;-1.464;2022-07-06T11:29:40;101559.94;;;21.97;77.29
29839;BME280;18669;53.356;-1.464;2022-07-06T11:32:08;101539.75;;;22.07;76.64
29839;BME280;18669;53.356;-1.464;2022-07-06T11:34:41;101547.97;;;22.36;76.83
29839;BME280;18669;53.356;-1.464;2022-07-06T11:37:13;101525.81;;;22.97;72.44
29839;BME280;18669;53.356;-1.464;2022-07-06T11:39:45;101535.94;;;23.52;68.41
29839;BME280;18669;53.356;-1.464;2022-07-06T11:42:15;101557.34;;;23.68;67.34
29839;BME280;18669;53.356;-1.464;2022-07-06T11:44:43;101553.72;;;23.84;64.51
29839;BME280;18669;53.356;-1.464;2022-07-06T11:47:12;101536.56;;;24.01;62.92
29839;BME280;18669;53.356;-1.464;2022-07-06T11:49:40;101551.50;;;25.03;61.86
29839;BME280;18669;53.356;-1.464;2022-07-06T11:52:09;101547.44;;;25.64;55.99
29839;BME280;18669;53.356;-1.464;2022-07-06T11:54:36;101552.28;;;25.59;53.22
29839;BME280;18669;53.356;-1.464;2022-07-06T11:57:08;101547.13;;;25.15;53.72
29839;BME280;18669;53.356;-1.464;2022-07-06T11:59:39;101535.06;;;24.39;58.52
29839;BME280;18669;53.356;-1.464;2022-07-06T12:02:11;101552.09;;;24.39;61.51
29839;BME280;18669;53.356;-1.464;2022-07-06T12:04:43;101560.41;;;24.91;57.00
29839;BME280;18669;53.356;-1.464;2022-07-06T12:07:14;101557.59;;;24.65;58.12
29839;BME280;18669;53.356;-1.464;2022-07-06T12:09:48;101555.91;;;24.50;60.77
29839;BME280;18669;53.356;-1.464;2022-07-06T12:12:15;101550.03;;;24.57;59.87
29839;BME280;18669;53.356;-1.464;2022-07-06T12:14:43;101561.13;;;24.38;60.45
29839;BME280;18669;53.356;-1.464;2022-07-06T12:17:11;101552.38;;;24.35;59.84
29839;BME280;18669;53.356;-1.464;2022-07-06T12:20:05;101553.28;;;24.90;58.39
29839;BME280;18669;53.356;-1.464;2022-07-06T12:26:40;101526.69;;;26.54;52.67
29839;BME280;18669;53.356;-1.464;2022-07-06T12:29:15;101541.09;;;27.84;48.27
29839;BME280;18669;53.356;-1.464;2022-07-06T12:32:22;101530.31;;;29.27;44.17
29839;BME280;18669;53.356;-1.464;2022-07-06T12:35:28;101521.75;;;30.15;42.28
29839;BME280;18669;53.356;-1.464;2022-07-06T12:37:55;101521.31;;;30.90;42.39
29839;BME280;18669;53.356;-1.464;2022-07-06T12:40:26;101522.59;;;31.16;39.40
29839;BME280;18669;53.356;-1.464;2022-07-06T12:43:39;101530.03;;;29.52;42.09
29839;BME280;18669;53.356;-1.464;2022-07-06T12:45:52;101522.50;;;28.36;43.35
29839;BME280;18669;53.356;-1.464;2022-07-06T12:52:19;101529.84;;;26.72;49.31
29839;BME280;18669;53.356;-1.464;2022-07-06T13:02:48;101518.34;;;26.32;52.33
29839;BME280;18669;53.356;-1.464;2022-07-06T13:06:08;101524.88;;;25.91;53.78
29839;BME280;18669;53.356;-1.464;2022-07-06T13:09:43;101517.50;;;25.28;56.28
29839;BME280;18669;53.356;-1.464;2022-07-06T13:13:18;101501.44;;;25.01;60.77
29839;BME280;18669;53.356;-1.464;2022-07-06T13:16:31;101504.72;;;24.64;61.18
29839;BME280;18669;53.356;-1.464;2022-07-06T13:20:08;101494.38;;;24.31;65.08
29839;BME280;18669;53.356;-1.464;2022-07-06T13:22:40;101488.84;;;23.76;67.56
29839;BME280;18669;53.356;-1.464;2022-07-06T13:28:50;101474.09;;;23.09;72.35
29839;BME280;18669;53.356;-1.464;2022-07-06T13:31:18;101503.22;;;23.01;75.48
29839;BME280;18669;53.356;-1.464;2022-07-06T13:33:45;101508.44;;;22.88;77.02
29839;BME280;18669;53.356;-1.464;2022-07-06T13:36:11;101501.06;;;22.91;79.49
29839;BME280;18669;53.356;-1.464;2022-07-06T13:38:38;101496.53;;;22.61;79.50
29839;BME280;18669;53.356;-1.464;2022-07-06T13:41:05;101517.69;;;22.82;82.61
29839;BME280;18669;53.356;-1.464;2022-07-06T13:43:31;101518.84;;;23.08;79.65
29839;BME280;18669;53.356;-1.464;2022-07-06T13:46:03;101508.41;;;23.04;80.72
29839;BME280;18669;53.356;-1.464;2022-07-06T13:48:34;101516.47;;;23.18;79.70
29839;BME280;18669;53.356;-1.464;2022-07-06T13:51:03;101517.13;;;23.07;81.91
29839;BME280;18669;53.356;-1.464;2022-07-06T13:53:33;101488.59;;;22.90;81.40
29839;BME280;18669;53.356;-1.464;2022-07-06T13:56:31;101509.34;;;23.03;84.05
29839;BME280;18669;53.356;-1.464;2022-07-06T13:59:09;101518.75;;;22.79;87.34
29839;BME280;18669;53.356;-1.464;2022-07-06T14:01:36;101511.88;;;22.43;93.08
29839;BME280;18669;53.356;-1.464;2022-07-06T14:04:26;101508.66;;;22.37;95.90
29839;BME280;18669;53.356;-1.464;2022-07-06T14:06:53;101501.72;;;22.32;98.09
29839;BME280;18669;53.356;-1.464;2022-07-06T14:09:19;101504.56;;;22.29;94.60
29839;BME280;18669;53.356;-1.464;2022-07-06T14:15:26;101503.25;;;21.88;95.01
29839;BME280;18669;53.356;-1.464;2022-07-06T14:18:02;101506.53;;;22.10;97.94
29839;BME280;18669;53.356;-1.464;2022-07-06T14:21:01;101491.06;;;21.99;93.67
29839;BME280;18669;53.356;-1.464;2022-07-06T14:23:27;101487.78;;;22.10;93.44
29839;BME280;18669;53.356;-1.464;2022-07-06T14:25:57;101501.53;;;22.03;93.24
29839;BME280;18669;53.356;-1.464;2022-07-06T14:28:24;101491.63;;;21.72;95.52
29839;BME280;18669;53.356;-1.464;2022-07-06T14:30:53;101489.91;;;21.71;97.75
29839;BME280;18669;53.356;-1.464;2022-07-06T14:33:20;101490.88;;;21.52;96.75
29839;BME280;18669;53.356;-1.464;2022-07-06T14:35:48;101487.53;;;21.65;94.39
29839;BME280;18669;53.356;-1.464;2022-07-06T14:38:21;101460.00;;;21.45;94.18
29839;BME280;18669;53.356;-1.464;2022-07-06T14:40:51;101474.63;;;21.55;94.57
29839;BME280;18669;53.356;-1.464;2022-07-06T14:43:18;101471.88;;;21.39;95.02
29839;BME280;18669;53.356;-1.464;2022-07-06T14:45:46;101488.84;;;21.40;96.33
29839;BME280;18669;53.356;-1.464;2022-07-06T14:48:33;101473.97;;;21.34;96.85
29839;BME280;18669;53.356;-1.464;2022-07-06T14:51:00;101490.34;;;20.93;98.60
29839;BME280;18669;53.356;-1.464;2022-07-06T14:58:06;101486.72;;;20.94;100.00
29839;BME280;18669;53.356;-1.464;2022-07-06T15:01:00;101475.16;;;20.93;100.00
29839;BME280;18669;53.356;-1.464;2022-07-06T15:15:42;101445.25;;;21.71;88.51
29839;BME280;18669;53.356;-1.464;2022-07-06T15:18:14;101464.38;;;21.64;89.56
29839;BME280;18669;53.356;-1.464;2022-07-06T15:20:52;101456.66;;;21.75;90.16
29839;BME280;18669;53.356;-1.464;2022-07-06T15:31:09;101459.00;;;22.61;84.82
29839;BME280;18669;53.356;-1.464;2022-07-06T15:33:36;101464.69;;;23.61;74.20
29839;BME280;18669;53.356;-1.464;2022-07-06T15:36:05;101472.06;;;24.01;69.38
29839;BME280;18669;53.356;-1.464;2022-07-06T15:41:30;101468.88;;;23.22;77.01
29839;BME280;18669;53.356;-1.464;2022-07-06T15:43:59;101471.69;;;22.74;80.42
29839;BME280;18669;53.356;-1.464;2022-07-06T15:46:31;101471.53;;;22.45;82.93